createdAt,value
2022-11-23T00:01:22.459Z,97778.00
2022-11-23T00:03:51.478Z,97767.56
2022-11-23T00:06:19.230Z,97775.44
2022-11-23T00:08:46.084Z,97760.22
2022-11-23T00:11:12.978Z,97734.88
2022-11-23T00:13:40.883Z,97735.38
2022-11-23T00:16:09.625Z,97722.63
2022-11-23T00:18:36.484Z,97723.88
2022-11-23T00:21:08.161Z,97719.63
2022-11-23T00:23:35.601Z,97688.44
2022-11-23T00:26:02.536Z,97677.94
2022-11-23T00:28:29.298Z,97670.56
2022-11-23T00:30:56.230Z,97656.53
2022-11-23T00:33:23.006Z,97654.25
2022-11-23T00:36:00.104Z,97637.47
2022-11-23T00:38:27.337Z,97624.63
2022-11-23T00:41:12.973Z,97617.69
2022-11-23T00:43:39.707Z,97603.69
2022-11-23T00:46:08.368Z,97606.06
2022-11-23T00:48:35.587Z,97595.19
2022-11-23T00:51:08.110Z,97591.34
2022-11-23T00:53:35.622Z,97573.00
2022-11-23T00:56:02.463Z,97573.41
2022-11-23T00:58:29.486Z,97563.66
2022-11-23T01:01:08.711Z,97546.09
2022-11-23T01:03:37.214Z,97547.69
2022-11-23T01:06:10.265Z,97541.84
2022-11-23T01:08:37.780Z,97521.13
2022-11-23T01:11:11.151Z,97523.88
2022-11-23T01:13:41.601Z,97507.84
2022-11-23T01:16:23.579Z,97503.53
2022-11-23T01:18:59.645Z,97491.84
2022-11-23T01:21:27.768Z,97483.59
2022-11-23T01:23:55.377Z,97482.81
2022-11-23T01:26:22.482Z,97470.28
2022-11-23T01:28:49.813Z,97461.69
2022-11-23T01:31:19.964Z,97453.81
2022-11-23T01:33:47.630Z,97428.75
2022-11-23T01:36:22.877Z,97423.25
2022-11-23T01:38:50.364Z,97413.06
2022-11-23T01:41:22.889Z,97407.56
2022-11-23T01:43:50.170Z,97413.03
2022-11-23T01:46:17.281Z,97417.38
2022-11-23T01:48:51.765Z,97411.47
2022-11-23T01:51:26.205Z,97408.72
2022-11-23T01:53:55.642Z,97407.53
2022-11-23T01:56:28.865Z,97406.38
2022-11-23T01:59:01.110Z,97388.72
2022-11-23T02:01:28.026Z,97367.16
2022-11-23T02:03:56.809Z,97346.34
2022-11-23T02:06:23.842Z,97335.75
2022-11-23T02:08:51.162Z,97333.78
2022-11-23T02:11:17.967Z,97332.97
2022-11-23T02:13:47.094Z,97326.69
2022-11-23T02:16:14.319Z,97323.56
2022-11-23T02:18:47.205Z,97319.59
2022-11-23T02:21:14.623Z,97307.03
2022-11-23T02:24:04.036Z,97278.00
2022-11-23T02:26:34.074Z,97257.22
2022-11-23T02:29:13.206Z,97234.41
2022-11-23T02:31:39.919Z,97229.31
2022-11-23T02:34:06.563Z,97224.56
2022-11-23T02:36:50.712Z,97197.88
2022-11-23T02:39:37.018Z,97172.72
2022-11-23T02:42:05.312Z,97172.28
2022-11-23T02:44:34.925Z,97165.56
2022-11-23T02:47:01.960Z,97145.88
2022-11-23T02:49:28.843Z,97130.88
2022-11-23T02:51:55.724Z,97104.47
2022-11-23T02:54:22.405Z,97102.47
2022-11-23T02:56:49.109Z,97082.34
2022-11-23T02:59:15.917Z,97059.44
2022-11-23T03:01:42.729Z,97054.25
2022-11-23T03:04:10.660Z,97033.69
2022-11-23T03:06:37.704Z,97026.88
2022-11-23T03:09:04.794Z,97016.94
2022-11-23T03:11:32.128Z,97016.81
2022-11-23T03:13:59.299Z,97013.13
2022-11-23T03:16:26.253Z,97012.22
2022-11-23T03:18:54.513Z,97010.91
2022-11-23T03:21:21.234Z,97002.94
2022-11-23T03:23:48.286Z,96998.16
2022-11-23T03:26:15.027Z,96996.91
2022-11-23T03:28:41.784Z,96979.13
2022-11-23T03:31:09.118Z,96973.56
2022-11-23T03:33:35.825Z,96963.19
2022-11-23T03:36:02.717Z,96959.22
2022-11-23T03:38:29.420Z,96948.88
2022-11-23T03:40:56.142Z,96947.22
2022-11-23T03:43:23.439Z,96914.00
2022-11-23T03:45:50.127Z,96931.28
2022-11-23T03:48:16.857Z,96917.03
2022-11-23T03:50:44.536Z,96909.81
2022-11-23T03:53:11.926Z,96923.19
2022-11-23T03:55:38.677Z,96907.78
2022-11-23T03:58:05.750Z,96883.66
2022-11-23T04:00:32.522Z,96873.41
2022-11-23T04:02:59.262Z,96869.38
2022-11-23T04:05:27.881Z,96855.19
2022-11-23T04:07:54.602Z,96840.13
2022-11-23T04:10:21.386Z,96843.59
2022-11-23T04:12:52.802Z,96846.69
2022-11-23T04:15:20.184Z,96847.03
2022-11-23T04:17:47.342Z,96847.75
2022-11-23T04:20:15.839Z,96835.16
2022-11-23T04:22:42.548Z,96835.50
2022-11-23T04:25:10.015Z,96811.38
2022-11-23T04:27:36.823Z,96812.94
2022-11-23T04:30:04.566Z,96816.91
2022-11-23T04:32:31.262Z,96820.84
2022-11-23T04:34:58.043Z,96863.91
2022-11-23T04:37:24.701Z,96877.75
2022-11-23T04:39:51.404Z,96877.91
2022-11-23T04:42:18.421Z,96885.44
2022-11-23T04:44:45.991Z,96897.56
2022-11-23T04:47:12.802Z,96898.63
2022-11-23T04:49:42.147Z,96902.72
2022-11-23T04:52:09.057Z,96908.78
2022-11-23T04:54:35.784Z,96919.88
2022-11-23T04:57:02.479Z,96907.03
2022-11-23T04:59:29.393Z,96902.34
2022-11-23T05:01:56.410Z,96883.53
2022-11-23T05:04:23.127Z,96897.34
2022-11-23T05:06:49.878Z,96891.84
2022-11-23T05:09:16.661Z,96893.09
2022-11-23T05:11:43.379Z,96907.25
2022-11-23T05:14:10.127Z,96913.16
2022-11-23T05:16:36.936Z,96914.38
2022-11-23T05:19:03.722Z,96916.00
2022-11-23T05:21:30.488Z,96923.09
2022-11-23T05:23:57.162Z,96937.28
2022-11-23T05:26:23.866Z,96934.16
2022-11-23T05:28:51.060Z,96954.59
2022-11-23T05:31:17.810Z,96954.59
2022-11-23T05:33:45.497Z,96950.72
2022-11-23T05:36:15.896Z,96957.81
2022-11-23T05:38:42.707Z,96958.63
2022-11-23T05:41:09.478Z,96977.53
2022-11-23T05:43:36.190Z,96967.69
2022-11-23T05:46:03.286Z,96974.41
2022-11-23T05:48:30.011Z,96977.97
2022-11-23T05:51:02.210Z,96982.31
2022-11-23T05:53:31.916Z,96988.22
2022-11-23T05:56:02.281Z,96995.31
2022-11-23T05:58:29.394Z,97003.63
2022-11-23T06:01:00.391Z,97005.22
2022-11-23T06:03:27.519Z,97013.88
2022-11-23T06:05:54.617Z,97020.16
2022-11-23T06:08:21.428Z,97026.44
2022-11-23T06:10:48.138Z,97032.72
2022-11-23T06:13:14.904Z,97042.91
2022-11-23T06:15:41.689Z,97040.56
2022-11-23T06:18:09.652Z,97047.66
2022-11-23T06:20:36.871Z,97054.38
2022-11-23T06:23:03.854Z,97059.53
2022-11-23T06:25:30.657Z,97066.63
2022-11-23T06:28:00.030Z,97068.97
2022-11-23T06:30:28.556Z,97083.13
2022-11-23T06:32:55.744Z,97083.91
2022-11-23T06:35:22.784Z,97094.13
2022-11-23T06:37:51.518Z,97098.03
2022-11-23T06:40:18.373Z,97110.63
2022-11-23T06:42:47.514Z,97108.72
2022-11-23T06:45:14.903Z,97113.81
2022-11-23T06:47:41.662Z,97114.22
2022-11-23T06:50:09.822Z,97131.09
2022-11-23T06:52:36.618Z,97135.44
2022-11-23T06:55:03.426Z,97133.53
2022-11-23T06:57:30.143Z,97137.84
2022-11-23T06:59:56.881Z,97141.00
2022-11-23T07:02:23.759Z,97141.41
2022-11-23T07:04:52.409Z,97150.03
2022-11-23T07:07:19.211Z,97160.25
2022-11-23T07:09:45.975Z,97166.56
2022-11-23T07:12:12.711Z,97179.13
2022-11-23T07:14:39.437Z,97172.88
2022-11-23T07:17:06.138Z,97183.84
2022-11-23T07:19:33.177Z,97183.84
2022-11-23T07:22:00.095Z,97187.41
2022-11-23T07:24:26.838Z,97188.56
2022-11-23T07:26:53.485Z,97192.53
2022-11-23T07:29:20.491Z,97214.09
2022-11-23T07:31:47.194Z,97216.84
2022-11-23T07:34:13.876Z,97225.47
2022-11-23T07:36:40.577Z,97227.81
2022-11-23T07:39:07.638Z,97237.25
2022-11-23T07:41:34.381Z,97231.75
2022-11-23T07:44:01.043Z,97238.84
2022-11-23T07:46:27.767Z,97251.78
2022-11-23T07:49:01.887Z,97247.47
2022-11-23T07:51:29.879Z,97262.41
2022-11-23T07:53:57.666Z,97267.88
2022-11-23T07:56:24.394Z,97261.59
2022-11-23T07:58:53.044Z,97274.53
2022-11-23T08:01:19.929Z,97266.31
2022-11-23T08:03:48.156Z,97268.25
2022-11-23T08:06:16.136Z,97274.13
2022-11-23T08:08:43.181Z,97277.28
2022-11-23T08:11:11.207Z,97281.63
2022-11-23T08:13:37.937Z,97277.28
2022-11-23T08:16:04.792Z,97272.22
2022-11-23T08:18:34.625Z,97278.09
2022-11-23T08:21:01.776Z,97281.22
2022-11-23T08:23:29.075Z,97272.97
2022-11-23T08:25:55.938Z,97281.22
2022-11-23T08:28:22.694Z,97282.78
2022-11-23T08:30:49.943Z,97276.13
2022-11-23T08:33:17.020Z,97271.78
2022-11-23T08:35:43.795Z,97266.31
2022-11-23T08:38:11.403Z,97272.56
2022-11-23T08:40:38.545Z,97269.00
2022-11-23T08:43:05.590Z,97267.06
2022-11-23T08:45:32.331Z,97267.03
2022-11-23T08:48:02.768Z,97276.44
2022-11-23T08:50:30.766Z,97273.69
2022-11-23T08:52:59.564Z,97271.69
2022-11-23T08:55:27.900Z,97279.13
2022-11-23T08:57:57.120Z,97268.53
2022-11-23T09:00:24.744Z,97272.44
2022-11-23T09:02:52.821Z,97285.78
2022-11-23T09:05:19.682Z,97290.44
2022-11-23T09:07:46.478Z,97290.44
2022-11-23T09:10:18.026Z,97288.88
2022-11-23T09:12:45.614Z,97312.41
2022-11-23T09:15:12.458Z,97307.72
2022-11-23T09:17:39.175Z,97309.66
2022-11-23T09:20:06.538Z,97312.78
2022-11-23T09:22:33.333Z,97328.09
2022-11-23T09:25:00.191Z,97322.59
2022-11-23T09:27:27.001Z,97319.84
2022-11-23T09:29:53.718Z,97325.34
2022-11-23T09:32:20.622Z,97344.59
2022-11-23T09:34:47.307Z,97342.59
2022-11-23T09:37:16.115Z,97351.63
2022-11-23T09:39:43.533Z,97363.41
2022-11-23T09:42:35.158Z,97350.47
2022-11-23T09:45:23.426Z,97355.53
2022-11-23T09:48:21.361Z,97355.16
2022-11-23T09:50:49.326Z,97377.50
2022-11-23T09:53:22.040Z,97365.72
2022-11-23T09:55:52.271Z,97373.59
2022-11-23T09:58:22.811Z,97371.22
2022-11-23T10:01:11.371Z,97360.19
2022-11-23T10:03:46.960Z,97365.69
2022-11-23T10:06:31.335Z,97369.59
2022-11-23T10:09:16.453Z,97368.78
2022-11-23T10:12:10.670Z,97374.25
2022-11-23T10:15:02.886Z,97386.00
2022-11-23T10:17:56.605Z,97392.25
2022-11-23T10:20:43.421Z,97390.28
2022-11-23T10:23:48.433Z,97398.50
2022-11-23T10:26:18.424Z,97404.41
2022-11-23T10:28:49.907Z,97420.09
2022-11-23T10:31:22.503Z,97424.38
2022-11-23T10:34:07.752Z,97429.09
2022-11-23T10:36:39.421Z,97427.13
2022-11-23T10:39:28.182Z,97424.38
2022-11-23T10:42:02.368Z,97424.44
2022-11-23T10:44:33.003Z,97414.22
2022-11-23T10:47:00.595Z,97421.28
2022-11-23T10:49:29.901Z,97424.75
2022-11-23T10:52:05.248Z,97426.28
2022-11-23T10:54:54.464Z,97422.31
2022-11-23T10:57:22.927Z,97422.28
2022-11-23T10:59:57.856Z,97427.72
2022-11-23T11:02:24.759Z,97429.66
2022-11-23T11:05:11.781Z,97425.72
2022-11-23T11:07:39.465Z,97429.66
2022-11-23T11:10:07.000Z,97420.97
2022-11-23T11:12:35.355Z,97423.72
2022-11-23T11:15:24.501Z,97431.19
2022-11-23T11:17:59.457Z,97432.38
2022-11-23T11:20:31.635Z,97430.41
2022-11-23T11:23:00.821Z,97424.53
2022-11-23T11:25:31.889Z,97420.97
2022-11-23T11:27:59.761Z,97425.69
2022-11-23T11:30:40.820Z,97413.91
2022-11-23T11:33:22.956Z,97432.00
2022-11-23T11:35:53.801Z,97449.28
2022-11-23T11:38:32.803Z,97461.09
2022-11-23T11:41:05.883Z,97453.22
2022-11-23T11:43:42.601Z,97465.00
2022-11-23T11:46:34.638Z,97462.63
2022-11-23T11:49:12.261Z,97462.63
2022-11-23T11:51:45.921Z,97443.38
2022-11-23T11:54:27.361Z,97454.00
2022-11-23T11:57:30.638Z,97443.38
2022-11-23T11:59:58.409Z,97450.06
2022-11-23T12:02:27.696Z,97447.69
2022-11-23T12:04:54.477Z,97450.81
2022-11-23T12:07:24.770Z,97444.50
2022-11-23T12:09:57.839Z,97446.75
2022-11-23T12:12:29.591Z,97440.81
2022-11-23T12:14:57.371Z,97443.53
2022-11-23T12:18:04.396Z,97434.84
2022-11-23T12:20:46.267Z,97443.88
2022-11-23T12:23:14.046Z,97449.78
2022-11-23T12:25:48.423Z,97438.75
2022-11-23T12:28:30.177Z,97444.25
2022-11-23T12:31:24.533Z,97443.38
2022-11-23T12:34:05.039Z,97452.41
2022-11-23T12:36:31.761Z,97450.81
2022-11-23T12:39:26.394Z,97435.44
2022-11-23T12:42:05.128Z,97436.59
2022-11-23T12:44:56.288Z,97433.78
2022-11-23T12:47:37.806Z,97435.72
2022-11-23T12:50:42.917Z,97434.53
2022-11-23T12:53:30.104Z,97449.50
2022-11-23T12:56:06.179Z,97456.16
2022-11-23T12:58:34.759Z,97463.59
2022-11-23T13:01:16.451Z,97460.81
2022-11-23T13:04:13.843Z,97464.69
2022-11-23T13:07:28.811Z,97460.63
2022-11-23T13:10:17.686Z,97466.41
2022-11-23T13:13:15.890Z,97472.97
2022-11-23T13:16:20.344Z,97459.47
2022-11-23T13:19:04.847Z,97467.66
2022-11-23T13:21:44.312Z,97460.50
2022-11-23T13:24:38.095Z,97466.06
2022-11-23T13:27:13.556Z,97467.41
2022-11-23T13:29:53.311Z,97464.00
2022-11-23T13:32:39.371Z,97478.31
2022-11-23T13:35:21.451Z,97465.69
2022-11-23T13:37:57.242Z,97466.81
2022-11-23T13:40:35.213Z,97459.97
2022-11-23T13:43:17.285Z,97455.91
2022-11-23T13:45:44.456Z,97455.78
2022-11-23T13:51:25.570Z,97463.25
2022-11-23T13:54:04.687Z,97467.72
2022-11-23T13:56:41.263Z,97457.53
2022-11-23T13:59:34.876Z,97462.25
2022-11-23T14:02:07.886Z,97464.06
2022-11-23T14:04:41.225Z,97452.38
2022-11-23T14:07:19.922Z,97466.34
2022-11-23T14:09:57.381Z,97466.13
2022-11-23T14:12:45.193Z,97449.09
2022-11-23T14:15:18.726Z,97470.09
2022-11-23T14:18:07.660Z,97458.06
2022-11-23T14:20:52.567Z,97453.91
2022-11-23T14:23:44.231Z,97455.31
2022-11-23T14:26:21.616Z,97462.22
2022-11-23T14:29:16.646Z,97450.16
2022-11-23T14:32:20.668Z,97455.00
2022-11-23T14:35:01.298Z,97449.97
2022-11-23T14:37:51.407Z,97450.84
2022-11-23T14:40:27.523Z,97454.03
2022-11-23T14:42:56.727Z,97459.97
2022-11-23T14:45:28.543Z,97459.22
2022-11-23T14:47:55.275Z,97484.88
2022-11-23T14:50:29.497Z,97466.03
2022-11-23T14:52:59.131Z,97476.31
2022-11-23T14:55:28.947Z,97469.25
2022-11-23T14:58:02.940Z,97469.28
2022-11-23T15:00:41.753Z,97477.19
2022-11-23T15:03:48.831Z,97454.00
2022-11-23T15:06:10.532Z,97455.16
2022-11-23T15:09:04.184Z,97452.00
2022-11-23T15:11:34.381Z,97445.72
2022-11-23T15:14:04.750Z,97456.75
2022-11-23T15:16:39.810Z,97462.25
2022-11-23T15:19:28.955Z,97466.56
2022-11-23T15:21:57.526Z,97455.53
2022-11-23T15:24:27.001Z,97469.69
2022-11-23T15:27:06.638Z,97464.59
2022-11-23T15:29:39.472Z,97461.41
2022-11-23T15:32:33.709Z,97472.44
2022-11-23T15:35:08.250Z,97463.81
2022-11-23T15:37:45.479Z,97468.94
2022-11-23T15:40:17.374Z,97455.53
2022-11-23T15:42:47.150Z,97458.28
2022-11-23T15:45:33.278Z,97464.63
2022-11-23T15:48:06.429Z,97470.13
2022-11-23T15:50:34.367Z,97460.69
2022-11-23T15:53:01.993Z,97475.63
2022-11-23T15:55:30.199Z,97477.22
2022-11-23T15:57:57.552Z,97480.41
2022-11-23T16:00:26.261Z,97493.81
2022-11-23T16:02:53.251Z,97513.06
2022-11-23T16:05:23.162Z,97521.34
2022-11-23T16:08:00.049Z,97558.31
2022-11-23T16:10:28.703Z,97618.53
2022-11-23T16:13:00.813Z,97637.50
2022-11-23T16:15:27.567Z,97649.09
2022-11-23T16:17:54.414Z,97637.41
2022-11-23T16:20:24.778Z,97630.75
2022-11-23T16:22:53.229Z,97612.31
2022-11-23T16:25:32.253Z,97592.28
2022-11-23T16:28:17.081Z,97579.34
2022-11-23T16:30:48.488Z,97588.78
2022-11-23T16:33:21.400Z,97571.09
2022-11-23T16:35:48.370Z,97574.25
2022-11-23T16:38:15.320Z,97587.19
2022-11-23T16:40:43.705Z,97579.34
2022-11-23T16:43:12.220Z,97577.00
2022-11-23T16:45:41.083Z,97579.34
2022-11-23T16:48:26.183Z,97587.16
2022-11-23T16:50:55.614Z,97590.28
2022-11-23T16:53:22.569Z,97601.69
2022-11-23T16:55:54.207Z,97607.16
2022-11-23T16:58:22.425Z,97605.97
2022-11-23T17:00:50.657Z,97600.47
2022-11-23T17:03:20.283Z,97612.25
2022-11-23T17:05:47.940Z,97624.84
2022-11-23T17:08:19.717Z,97616.94
2022-11-23T17:10:47.315Z,97622.44
2022-11-23T17:13:26.831Z,97627.13
2022-11-23T17:15:54.289Z,97635.03
2022-11-23T17:18:22.405Z,97638.56
2022-11-23T17:20:49.542Z,97646.03
2022-11-23T17:23:16.459Z,97649.97
2022-11-23T17:25:43.186Z,97652.34
2022-11-23T17:28:21.370Z,97655.47
2022-11-23T17:30:49.145Z,97671.97
2022-11-23T17:33:15.924Z,97664.13
2022-11-23T17:35:42.859Z,97666.09
2022-11-23T17:38:22.530Z,97671.56
2022-11-23T17:40:49.275Z,97682.97
2022-11-23T17:43:16.040Z,97691.59
2022-11-23T17:45:46.207Z,97687.66
2022-11-23T17:48:15.112Z,97684.91
2022-11-23T17:50:41.872Z,97701.81
2022-11-23T17:53:10.402Z,97702.56
2022-11-23T17:55:37.629Z,97698.66
2022-11-23T17:58:04.932Z,97692.75
2022-11-23T18:00:33.836Z,97682.97
2022-11-23T18:03:01.696Z,97683.75
2022-11-23T18:05:29.945Z,97673.13
2022-11-23T18:07:56.774Z,97699.41
2022-11-23T18:10:23.784Z,97693.94
2022-11-23T18:12:50.615Z,97697.06
2022-11-23T18:15:17.428Z,97697.81
2022-11-23T18:17:44.225Z,97697.44
2022-11-23T18:20:11.592Z,97702.16
2022-11-23T18:22:39.313Z,97703.31
2022-11-23T18:25:06.467Z,97711.16
2022-11-23T18:27:33.199Z,97726.06
2022-11-23T18:30:00.001Z,97736.25
2022-11-23T18:32:26.691Z,97733.13
2022-11-23T18:34:53.361Z,97743.69
2022-11-23T18:37:20.428Z,97739.78
2022-11-23T18:39:47.150Z,97740.56
2022-11-23T18:42:14.387Z,97751.56
2022-11-23T18:44:41.103Z,97749.22
2022-11-23T18:47:09.070Z,97742.56
2022-11-23T18:49:36.135Z,97755.53
2022-11-23T18:52:02.997Z,97759.88
2022-11-23T18:54:29.738Z,97761.44
2022-11-23T18:56:56.504Z,97760.66
2022-11-23T19:02:13.372Z,97773.25
2022-11-23T19:04:40.173Z,97791.28
2022-11-23T19:07:07.196Z,97774.44
2022-11-23T19:09:34.847Z,97777.19
2022-11-23T19:12:01.882Z,97783.44
2022-11-23T19:14:31.631Z,97779.13
2022-11-23T19:16:58.430Z,97780.69
2022-11-23T19:19:26.179Z,97792.09
2022-11-23T19:21:53.144Z,97789.34
2022-11-23T19:24:19.837Z,97797.97
2022-11-23T19:26:46.609Z,97804.66
2022-11-23T19:29:13.900Z,97803.88
2022-11-23T19:31:40.756Z,97800.72
2022-11-23T19:34:07.631Z,97800.34
2022-11-23T19:36:39.248Z,97805.47
2022-11-23T19:39:06.303Z,97818.78
2022-11-23T19:41:33.310Z,97816.84
2022-11-23T19:44:01.203Z,97816.03
2022-11-23T19:46:29.860Z,97819.97
2022-11-23T19:48:57.565Z,97832.94
2022-11-23T19:51:25.084Z,97832.94
2022-11-23T19:53:51.901Z,97833.72
2022-11-23T19:56:24.133Z,97848.25
2022-11-23T19:58:53.050Z,97847.84
2022-11-23T20:01:22.054Z,97851.38
2022-11-23T20:03:51.003Z,97876.88
2022-11-23T20:06:26.138Z,97862.00
2022-11-23T20:09:01.516Z,97865.91
2022-11-23T20:11:30.470Z,97874.94
2022-11-23T20:13:57.515Z,97875.31
2022-11-23T20:16:26.348Z,97870.63
2022-11-23T20:19:01.428Z,97883.19
2022-11-23T20:21:29.663Z,97886.34
2022-11-23T20:24:08.016Z,97892.63
2022-11-23T20:26:36.534Z,97909.88
2022-11-23T20:29:05.477Z,97887.91
2022-11-23T20:31:33.336Z,97913.41
2022-11-23T20:34:00.176Z,97926.38
2022-11-23T20:36:34.426Z,97932.66
2022-11-23T20:39:04.079Z,97903.63
2022-11-23T20:41:35.822Z,97929.53
2022-11-23T20:44:04.987Z,97935.41
2022-11-23T20:49:21.247Z,97947.56
2022-11-23T20:51:47.958Z,97962.47
2022-11-23T20:54:14.650Z,97976.63
2022-11-23T20:56:41.354Z,97956.22
2022-11-23T20:59:08.047Z,97950.72
2022-11-23T21:01:35.155Z,97956.22
2022-11-23T21:04:02.068Z,97961.69
2022-11-23T21:06:32.312Z,97981.28
2022-11-23T21:09:01.155Z,97981.69
2022-11-23T21:11:47.418Z,97973.41
2022-11-23T21:14:24.568Z,97991.47
2022-11-23T21:16:56.268Z,97987.91
2022-11-23T21:19:30.002Z,97990.25
2022-11-23T21:21:58.150Z,97993.00
2022-11-23T21:24:25.640Z,97995.75
2022-11-23T21:26:52.577Z,98010.25
2022-11-23T21:29:20.174Z,98009.50
2022-11-23T21:31:49.082Z,98020.50
2022-11-23T21:34:25.954Z,98029.13
2022-11-23T21:36:54.046Z,98034.22
2022-11-23T21:39:21.657Z,98051.94
2022-11-23T21:41:53.672Z,98055.88
2022-11-23T21:44:22.164Z,98031.53
2022-11-23T21:46:49.461Z,98039.44
2022-11-23T21:49:16.658Z,98048.84
2022-11-23T21:51:43.805Z,98048.84
2022-11-23T21:54:15.669Z,98049.25
2022-11-23T21:56:44.610Z,98064.59
2022-11-23T21:59:12.429Z,98079.53
2022-11-23T22:01:40.485Z,98086.59
2022-11-23T22:04:10.444Z,98103.91
2022-11-23T22:06:38.598Z,98090.59
2022-11-23T22:09:07.772Z,98078.81
2022-11-23T22:11:36.230Z,98105.91
2022-11-23T22:14:06.150Z,98095.72
2022-11-23T22:16:44.105Z,98101.59
2022-11-23T22:19:12.418Z,98112.56
2022-11-23T22:21:40.673Z,98128.25
2022-11-23T22:24:11.550Z,98114.50
2022-11-23T22:26:38.677Z,98140.00
2022-11-23T22:29:06.916Z,98153.31
2022-11-23T22:31:35.338Z,98165.47
2022-11-23T22:34:03.902Z,98167.44
2022-11-23T22:36:30.726Z,98146.59
2022-11-23T22:39:01.730Z,98146.22
2022-11-23T22:41:30.817Z,98140.28
2022-11-23T22:43:57.562Z,98151.25
2022-11-23T22:46:25.927Z,98148.81
2022-11-23T22:48:53.377Z,98168.41
2022-11-23T22:51:22.593Z,98182.53
2022-11-23T22:53:54.658Z,98178.25
2022-11-23T22:56:22.041Z,98180.25
2022-11-23T22:58:49.420Z,98191.22
2022-11-23T23:01:19.091Z,98185.72
2022-11-23T23:03:46.864Z,98170.41
2022-11-23T23:06:17.315Z,98169.28
2022-11-23T23:08:45.704Z,98175.97
2022-11-23T23:11:13.604Z,98180.69
2022-11-23T23:13:41.224Z,98177.94
2022-11-23T23:16:11.863Z,98175.59
2022-11-23T23:18:39.467Z,98197.56
2022-11-23T23:21:12.234Z,98179.88
2022-11-23T23:23:40.899Z,98194.78
2022-11-23T23:26:08.135Z,98198.72
2022-11-23T23:28:35.330Z,98205.00
2022-11-23T23:31:06.293Z,98211.66
2022-11-23T23:33:33.808Z,98213.63
2022-11-23T23:36:08.963Z,98201.44
2022-11-23T23:38:37.335Z,98213.56
2022-11-23T23:41:05.307Z,98222.59
2022-11-23T23:43:32.706Z,98230.84
2022-11-23T23:46:01.304Z,98237.09
2022-11-23T23:48:33.866Z,98230.03
2022-11-23T23:51:08.504Z,98234.75
2022-11-23T23:53:36.582Z,98252.03
2022-11-23T23:56:05.964Z,98257.88
2022-11-23T23:58:32.722Z,98255.56
